Time;durP1;ratioP1;P1;durP2;ratioP2;P2;SDS_P1;SDS_P2;PMS_P1;PMS_P2;Temp;Humidity;BMP_temperature;BMP_pressure;BME280_temperature;BME280_humidity;BME280_pressure;Samples;Min_cycle;Max_cycle;Signal;HPM_P1;HPM_P2
2021/07/10 00:05:14;;;;;;;4.37;3.00;;;;;;;19.23;73.42;98730.30;512946;1089;103169;-41
2021/07/10 00:15:24;;;;;;;6.07;3.40;;;;;;;18.57;73.19;98733.50;512756;1089;103127;-39
2021/07/10 00:25:33;;;;;;;7.37;3.23;;;;;;;18.12;73.36;98745.30;512934;1089;103191;-41
2021/07/10 00:35:41;;;;;;;8.13;3.50;;;;;;;17.73;73.63;98745.98;512758;1089;103504;-41
2021/07/10 00:45:49;;;;;;;6.70;3.03;;;;;;;17.92;75.10;98732.01;512900;1090;103377;-40
2021/07/10 00:56:01;;;;;;;4.80;3.93;;;;;;;18.25;74.48;98733.99;512869;1088;103514;-41
2021/07/10 01:06:08;;;;;;;2.93;2.63;;;;;;;18.26;74.66;98740.14;512933;1089;103122;-42
2021/07/10 01:16:16;;;;;;;4.33;3.13;;;;;;;18.36;74.58;98753.45;512861;1088;103493;-42
2021/07/10 01:26:24;;;;;;;5.38;4.05;;;;;;;18.16;74.10;98785.67;513184;1090;103102;-41
2021/07/10 01:36:33;;;;;;;4.23;2.33;;;;;;;18.27;74.48;98787.25;512966;1089;103043;-41
2021/07/10 01:47:09;;;;;;;4.80;2.47;;;;;;;17.83;73.71;98795.19;513680;1089;103069;-41
2021/07/10 01:57:19;;;;;;;3.53;2.20;;;;;;;17.51;73.58;98788.30;512948;1090;103377;-39
2021/07/10 02:07:27;;;;;;;2.23;1.30;;;;;;;17.18;74.22;98787.79;512937;1089;103179;-44
2021/07/10 02:17:35;;;;;;;3.30;1.53;;;;;;;16.85;74.44;98789.14;512795;1089;103124;-39
2021/07/10 02:27:44;;;;;;;10.00;2.00;;;;;;;16.79;74.42;98803.53;512981;1088;103508;-42
2021/07/10 02:37:52;;;;;;;2.88;1.48;;;;;;;16.60;74.75;98809.64;512890;1088;103885;-41
2021/07/10 02:48:01;;;;;;;6.28;1.63;;;;;;;16.53;74.87;98791.19;512689;1089;103419;-41
2021/07/10 02:58:08;;;;;;;3.57;1.40;;;;;;;16.53;75.12;98804.53;512911;1089;103108;-40
2021/07/10 03:08:20;;;;;;;2.05;1.60;;;;;;;16.59;75.35;98819.52;512848;1089;103119;-41
2021/07/10 03:18:27;;;;;;;8.55;1.35;;;;;;;16.77;75.04;98819.02;513034;1089;103102;-41
2021/07/10 03:28:35;;;;;;;0.90;0.90;;;;;;;16.84;75.37;98808.91;512813;1089;103498;-42
2021/07/10 03:38:44;;;;;;;3.47;1.00;;;;;;;16.84;74.67;98802.77;512765;1088;103057;-41
2021/07/10 03:48:50;;;;;;;;;;;;;;;16.67;75.14;98818.22;513048;1089;103504;-41
2021/07/10 03:58:58;;;;;;;4.03;1.90;;;;;;;16.48;75.27;98834.69;512942;1089;103122;-41
2021/07/10 04:09:06;;;;;;;3.95;2.30;;;;;;;16.47;75.29;98827.75;512789;1088;103127;-40
2021/07/10 04:19:13;;;;;;;3.58;2.00;;;;;;;16.57;75.70;98833.13;512732;1088;103470;-41
2021/07/10 04:29:21;;;;;;;6.67;2.03;;;;;;;16.88;75.42;98852.70;512821;1089;103070;-41
2021/07/10 04:39:29;;;;;;;3.63;2.17;;;;;;;17.24;75.84;98855.39;512979;1088;103143;-41
2021/07/10 04:49:37;;;;;;;6.87;3.20;;;;;;;18.30;75.39;98867.00;512896;1089;103186;-41
2021/07/10 04:59:45;;;;;;;6.83;3.00;;;;;;;18.96;74.74;98858.64;512825;1090;103134;-41
2021/07/10 05:09:53;;;;;;;5.55;3.05;;;;;;;18.91;74.04;98845.25;512856;1090;103100;-42
2021/07/10 05:20:00;;;;;;;3.60;2.20;;;;;;;18.89;74.03;98858.93;513033;1091;104352;-42
2021/07/10 05:30:13;;;;;;;4.58;2.43;;;;;;;19.20;73.22;98862.22;512674;1090;103064;-42
2021/07/10 05:40:21;;;;;;;4.97;2.17;;;;;;;19.51;72.93;98856.59;512994;1090;103122;-41
2021/07/10 05:50:29;;;;;;;4.00;2.13;;;;;;;20.30;72.63;98871.33;512980;1088;103117;-41
2021/07/10 06:00:35;;;;;;;;;;;;;;;21.79;71.39;98871.58;512874;1089;103483;-38
2021/07/10 06:10:43;;;;;;;1.50;1.40;;;;;;;21.89;70.43;98867.89;512802;1089;103061;-40
2021/07/10 06:20:50;;;;;;;5.07;1.67;;;;;;;21.60;70.17;98890.48;512723;1089;103091;-41
2021/07/10 06:30:57;;;;;;;;;;;;;;;22.35;68.48;98892.08;513241;1089;103451;-42
2021/07/10 06:41:05;;;;;;;6.13;2.27;;;;;;;21.53;68.57;98902.70;512893;1089;103054;-41
2021/07/10 06:51:13;;;;;;;3.47;1.83;;;;;;;20.97;68.65;98898.95;512730;1088;103096;-41
2021/07/10 07:01:20;;;;;;;3.13;0.80;;;;;;;21.53;68.33;98900.83;513019;1088;103121;-42
2021/07/10 07:11:29;;;;;;;1.93;0.60;;;;;;;20.82;66.81;98904.57;512795;1088;103243;-42
2021/07/10 07:21:36;;;;;;;0.73;0.73;;;;;;;20.41;66.12;98913.14;512826;1088;103383;-39
2021/07/10 07:31:45;;;;;;;0.90;0.48;;;;;;;20.28;66.41;98910.30;512842;1088;103134;-41
2021/07/10 07:41:51;;;;;;;;;;;;;;;21.18;67.44;98910.22;513058;1089;103126;-40
2021/07/10 07:51:59;;;;;;;2.50;0.60;;;;;;;23.05;64.51;98912.45;513006;1089;103105;-41
2021/07/10 08:02:07;;;;;;;0.67;0.50;;;;;;;22.99;64.08;98911.77;512856;1088;103138;-41
2021/07/10 08:12:15;;;;;;;1.35;0.90;;;;;;;23.18;62.98;98919.69;512952;1088;103105;-43
2021/07/10 08:22:22;;;;;;;1.93;0.50;;;;;;;23.00;61.57;98916.06;513005;1088;103166;-42
2021/07/10 08:32:29;;;;;;;0.40;0.40;;;;;;;22.79;61.43;98920.28;513361;1089;103447;-42
2021/07/10 08:42:36;;;;;;;0.60;0.58;;;;;;;22.37;60.44;98932.98;513239;1089;103100;-42
2021/07/10 08:52:44;;;;;;;1.03;0.93;;;;;;;23.32;60.81;98930.44;512967;1089;103130;-41
2021/07/10 09:02:54;;;;;;;0.83;0.80;;;;;;;22.77;58.73;98941.34;513287;1089;103130;-42
2021/07/10 09:13:03;;;;;;;1.40;0.80;;;;;;;22.35;59.14;98937.88;513104;1088;103106;-41
2021/07/10 09:23:23;;;;;;;1.57;1.07;;;;;;;22.49;58.55;98946.77;512740;1091;103187;-41
2021/07/10 09:33:31;;;;;;;4.93;0.80;;;;;;;22.91;59.04;98945.63;513213;1087;103124;-40
2021/07/10 09:43:40;;;;;;;2.17;0.87;;;;;;;23.40;57.87;98943.98;512836;1089;103067;-42
2021/07/10 10:04:23;;;;;;;3.13;0.90;;;;;;;22.71;58.67;98953.31;512921;1091;103463;-40
2021/07/10 10:14:28;;;;;;;1.33;1.20;;;;;;;22.81;59.10;98947.73;512630;1091;103162;-42
2021/07/10 10:24:35;;;;;;;6.35;1.20;;;;;;;24.00;58.95;98950.92;512594;1091;103153;-42
2021/07/10 10:34:44;;;;;;;1.93;1.30;;;;;;;24.41;58.07;98951.47;512849;1091;103109;-40
2021/07/10 10:44:56;;;;;;;4.30;1.35;;;;;;;25.05;57.50;98957.19;512809;1091;103150;-42
2021/07/10 10:55:11;;;;;;;1.50;1.40;;;;;;;24.77;56.02;98953.94;512916;1090;103131;-42
2021/07/10 11:05:20;;;;;;;1.30;1.20;;;;;;;24.15;56.17;98950.53;512957;1089;103149;-42
2021/07/10 11:15:45;;;;;;;1.60;1.20;;;;;;;24.04;55.78;98957.30;512846;1090;103198;-43
2021/07/10 11:26:15;;;;;;;1.23;1.17;;;;;;;23.83;55.60;98952.41;512933;1091;103521;-43
2021/07/10 11:36:52;;;;;;;1.80;1.70;;;;;;;24.11;56.02;98947.63;512923;1091;103125;-41
2021/07/10 11:47:08;;;;;;;10.87;6.10;;;;;;;25.22;54.52;98958.33;513087;1091;103140;-42
2021/07/10 11:57:17;;;;;;;1.75;1.65;;;;;;;25.56;54.00;98952.13;512933;1091;103127;-42
2021/07/10 12:07:25;;;;;;;2.93;2.73;;;;;;;25.70;52.13;98950.84;513213;1091;103543;-42
2021/07/10 12:17:30;;;;;;;;;;;;;;;25.28;53.07;98943.52;512966;1092;103137;-42
2021/07/10 12:27:38;;;;;;;2.00;1.90;;;;;;;24.75;52.69;98941.84;512889;1091;103108;-42
2021/07/10 12:37:45;;;;;;;3.43;1.60;;;;;;;24.17;52.82;98932.11;512927;1091;103125;-43
2021/07/10 12:47:59;;;;;;;2.37;1.67;;;;;;;23.82;52.57;98937.31;512839;1088;103113;-41
2021/07/10 12:58:07;;;;;;;2.17;1.50;;;;;;;24.07;53.15;98927.75;513106;1088;103103;-40
2021/07/10 13:08:17;;;;;;;2.20;1.20;;;;;;;24.29;52.55;98921.52;512921;1091;103105;-44
2021/07/10 13:18:25;;;;;;;1.07;0.70;;;;;;;24.24;51.80;98921.63;512627;1092;103143;-45
2021/07/10 13:38:40;;;;;;;1.73;1.10;;;;;;;24.11;52.26;98919.81;512865;1092;103504;-42
2021/07/10 13:48:50;;;;;;;1.25;1.15;;;;;;;24.75;51.14;98912.89;512653;1092;103124;-42
2021/07/10 13:59:03;;;;;;;4.48;1.00;;;;;;;24.79;50.30;98911.14;512815;1091;103203;-42
2021/07/10 14:09:11;;;;;;;4.20;1.40;;;;;;;24.63;50.25;98910.02;512847;1091;103463;-43
2021/07/10 14:19:19;;;;;;;0.70;0.70;;;;;;;24.02;50.51;98898.19;512914;1091;103140;-42
2021/07/10 14:39:35;;;;;;;0.67;0.67;;;;;;;23.55;50.73;98884.25;512776;1093;103427;-41
2021/07/10 14:49:43;;;;;;;0.80;0.80;;;;;;;23.86;50.50;98892.38;512765;1093;103140;-41
2021/07/10 14:59:51;;;;;;;2.00;0.50;;;;;;;23.60;49.52;98872.55;512798;1089;103539;-41
2021/07/10 15:09:59;;;;;;;1.23;0.80;;;;;;;23.63;50.15;98865.73;512781;1092;103148;-42
2021/07/10 15:20:10;;;;;;;0.77;0.77;;;;;;;23.84;50.60;98856.79;512790;1091;103530;-42
2021/07/10 15:30:20;;;;;;;0.70;0.60;;;;;;;23.95;49.60;98849.23;512907;1091;103127;-42
2021/07/10 15:40:29;;;;;;;0.77;0.77;;;;;;;23.65;49.54;98831.92;512762;1092;103591;-41
2021/07/10 15:50:34;;;;;;;;;;;;;;;23.72;49.62;98832.29;512831;1091;103159;-42
2021/07/10 16:10:51;;;;;;;1.97;0.80;;;;;;;23.11;49.52;98823.02;512809;1091;103131;-42
2021/07/10 16:31:07;;;;;;;1.43;0.73;;;;;;;22.86;49.70;98819.02;512846;1092;103397;-41
2021/07/10 16:41:16;;;;;;;8.03;5.43;;;;;;;22.75;49.84;98836.52;512768;1089;103100;-40
2021/07/10 16:51:23;;;;;;;1.18;1.05;;;;;;;22.67;50.39;98839.91;513004;1088;103766;-42
2021/07/10 17:01:31;;;;;;;0.97;0.93;;;;;;;22.52;49.95;98853.74;513112;1088;103101;-41
2021/07/10 17:11:38;;;;;;;2.87;1.17;;;;;;;22.41;50.40;98855.84;513354;1089;103102;-41
2021/07/10 17:21:46;;;;;;;1.07;1.00;;;;;;;22.43;51.00;98861.72;512921;1089;104276;-41
2021/07/10 17:31:54;;;;;;;3.70;1.70;;;;;;;22.30;50.63;98857.96;512899;1089;103115;-42
2021/07/10 17:42:02;;;;;;;1.50;1.00;;;;;;;22.22;51.40;98857.84;512773;1089;103519;-42
2021/07/10 17:52:08;;;;;;;3.88;1.63;;;;;;;22.02;51.14;98859.84;512773;1088;103128;-42
2021/07/10 18:02:14;;;;;;;2.73;1.30;;;;;;;21.85;51.71;98858.83;512864;1089;103121;-42
2021/07/10 18:12:22;;;;;;;1.97;1.40;;;;;;;21.64;53.25;98863.77;512967;1088;103204;-42
2021/07/10 18:22:30;;;;;;;3.03;1.35;;;;;;;21.32;53.67;98864.59;513517;1090;103114;-42
2021/07/10 18:32:36;;;;;;;;;;;;;;;20.92;54.78;98869.47;512874;1089;103099;-42
2021/07/10 18:42:44;;;;;;;3.57;3.27;;;;;;;20.41;54.92;98872.05;512743;1089;103064;-42
2021/07/10 18:52:51;;;;;;;7.97;2.73;;;;;;;19.95;55.41;98877.92;512988;1089;103509;-40
2021/07/10 19:02:58;;;;;;;;;;;;;;;19.69;56.37;98873.89;512875;1089;103511;-42
2021/07/10 19:13:05;;;;;;;5.53;4.33;;;;;;;19.42;57.16;98860.97;512840;1088;103121;-43
2021/07/10 19:23:13;;;;;;;14.33;11.60;;;;;;;19.17;58.23;98873.50;512913;1089;103117;-43
2021/07/10 19:33:21;;;;;;;8.63;5.38;;;;;;;18.62;58.39;98879.95;512733;1088;103102;-42
2021/07/10 19:43:29;;;;;;;14.87;9.57;;;;;;;18.43;59.75;98871.73;512980;1089;103155;-42
2021/07/10 19:53:36;;;;;;;8.53;5.87;;;;;;;18.18;60.69;98864.62;512985;1089;104501;-42
2021/07/10 20:03:44;;;;;;;15.80;10.20;;;;;;;18.10;61.28;98867.87;512969;1090;103494;-43
2021/07/10 20:13:52;;;;;;;18.30;13.10;;;;;;;17.93;61.75;98859.34;512894;1089;103092;-39
2021/07/10 20:24:00;;;;;;;13.80;8.65;;;;;;;17.82;62.15;98858.58;512832;1088;103094;-41
2021/07/10 20:34:08;;;;;;;8.27;6.83;;;;;;;17.60;62.46;98866.88;512938;1088;103102;-41
2021/07/10 20:44:17;;;;;;;8.20;5.98;;;;;;;17.48;62.92;98869.81;513416;1090;103120;-42
2021/07/10 20:54:23;;;;;;;11.40;6.23;;;;;;;17.28;63.23;98861.83;512853;1089;103112;-42
2021/07/10 21:04:34;;;;;;;8.37;6.50;;;;;;;17.13;63.88;98851.13;512989;1090;103104;-42
2021/07/10 21:24:49;;;;;;;6.65;6.00;;;;;;;16.80;64.45;98866.59;513151;1088;103117;-42
2021/07/10 21:34:57;;;;;;;9.88;6.20;;;;;;;16.84;64.89;98861.52;513135;1089;103097;-42
2021/07/10 21:45:04;;;;;;;13.37;6.07;;;;;;;16.98;65.02;98869.80;512890;1089;103100;-42
2021/07/10 21:55:13;;;;;;;9.00;5.98;;;;;;;16.85;65.61;98865.79;513095;1088;103511;-42
2021/07/10 22:05:21;;;;;;;6.98;5.00;;;;;;;16.75;65.74;98863.08;512950;1089;103454;-40
2021/07/10 22:15:31;;;;;;;6.95;5.20;;;;;;;16.65;65.72;98844.34;512914;1088;103493;-41
2021/07/10 22:25:36;;;;;;;;;;;;;;;16.48;66.24;98833.89;512977;1088;103460;-41
2021/07/10 22:35:45;;;;;;;6.00;4.37;;;;;;;16.32;66.46;98825.02;513060;1089;103100;-43
2021/07/10 22:45:54;;;;;;;7.43;4.50;;;;;;;16.23;66.67;98813.27;512790;1088;103137;-42
2021/07/10 22:56:03;;;;;;;6.73;5.33;;;;;;;15.95;67.38;98809.95;512744;1089;103507;-42
2021/07/10 23:06:09;;;;;;;5.63;4.83;;;;;;;15.72;67.30;98813.03;512829;1088;103117;-42
2021/07/10 23:26:26;;;;;;;7.57;5.20;;;;;;;15.52;68.38;98810.22;513027;1088;103113;-41
2021/07/10 23:36:34;;;;;;;9.75;7.50;;;;;;;15.45;68.53;98802.45;512896;1090;103131;-41
2021/07/10 23:46:41;;;;;;;13.97;7.40;;;;;;;15.13;68.53;98799.81;512761;1089;103099;-42
2021/07/10 23:56:49;;;;;;;12.77;8.20;;;;;;;15.27;69.56;98790.34;512883;1088;103370;-42
